sensor_id;sensor_type;location;lat;lon;timestamp;P1;durP1;ratioP1;P2;durP2;ratioP2
66607;SDS011;53462;39.616;8.824;2023-05-07T00:00:46;4.63;;;2.78;;
66607;SDS011;53462;39.616;8.824;2023-05-07T00:03:12;7.45;;;2.70;;
66607;SDS011;53462;39.616;8.824;2023-05-07T00:05:39;3.78;;;2.70;;
66607;SDS011;53462;39.616;8.824;2023-05-07T00:08:05;3.90;;;2.60;;
66607;SDS011;53462;39.616;8.824;2023-05-07T00:10:31;3.13;;;2.40;;
66607;SDS011;53462;39.616;8.824;2023-05-07T00:12:56;3.78;;;2.47;;
66607;SDS011;53462;39.616;8.824;2023-05-07T00:15:22;3.88;;;2.50;;
66607;SDS011;53462;39.616;8.824;2023-05-07T00:17:48;3.17;;;2.50;;
66607;SDS011;53462;39.616;8.824;2023-05-07T00:20:14;5.43;;;2.50;;
66607;SDS011;53462;39.616;8.824;2023-05-07T00:22:40;3.28;;;2.38;;
66607;SDS011;53462;39.616;8.824;2023-05-07T00:25:06;4.22;;;2.42;;
66607;SDS011;53462;39.616;8.824;2023-05-07T00:27:32;4.05;;;2.42;;
66607;SDS011;53462;39.616;8.824;2023-05-07T00:29:58;2.70;;;2.20;;
66607;SDS011;53462;39.616;8.824;2023-05-07T00:32:24;5.18;;;2.15;;
66607;SDS011;53462;39.616;8.824;2023-05-07T00:34:50;3.42;;;2.28;;
66607;SDS011;53462;39.616;8.824;2023-05-07T00:37:16;3.58;;;2.30;;
66607;SDS011;53462;39.616;8.824;2023-05-07T00:39:42;2.88;;;2.00;;
66607;SDS011;53462;39.616;8.824;2023-05-07T00:42:08;2.85;;;2.20;;
66607;SDS011;53462;39.616;8.824;2023-05-07T00:44:34;2.65;;;2.15;;
66607;SDS011;53462;39.616;8.824;2023-05-07T00:47:01;3.05;;;2.30;;
66607;SDS011;53462;39.616;8.824;2023-05-07T00:49:38;3.15;;;2.25;;
66607;SDS011;53462;39.616;8.824;2023-05-07T00:52:06;4.35;;;2.53;;
66607;SDS011;53462;39.616;8.824;2023-05-07T00:54:34;2.75;;;2.10;;
66607;SDS011;53462;39.616;8.824;2023-05-07T00:57:01;3.67;;;2.08;;
66607;SDS011;53462;39.616;8.824;2023-05-07T00:59:28;3.33;;;2.38;;
66607;SDS011;53462;39.616;8.824;2023-05-07T01:01:55;4.20;;;2.30;;
66607;SDS011;53462;39.616;8.824;2023-05-07T01:04:21;2.95;;;2.28;;
66607;SDS011;53462;39.616;8.824;2023-05-07T01:06:47;4.05;;;2.30;;
66607;SDS011;53462;39.616;8.824;2023-05-07T01:09:14;3.25;;;2.15;;
66607;SDS011;53462;39.616;8.824;2023-05-07T01:11:40;2.53;;;2.20;;
66607;SDS011;53462;39.616;8.824;2023-05-07T01:14:08;4.30;;;2.53;;
66607;SDS011;53462;39.616;8.824;2023-05-07T01:16:36;4.15;;;2.40;;
66607;SDS011;53462;39.616;8.824;2023-05-07T01:19:02;2.92;;;2.17;;
66607;SDS011;53462;39.616;8.824;2023-05-07T01:21:29;4.85;;;2.30;;
66607;SDS011;53462;39.616;8.824;2023-05-07T01:24:00;3.35;;;2.28;;
66607;SDS011;53462;39.616;8.824;2023-05-07T01:26:28;2.60;;;2.20;;
66607;SDS011;53462;39.616;8.824;2023-05-07T01:28:53;3.30;;;2.15;;
66607;SDS011;53462;39.616;8.824;2023-05-07T01:31:19;3.63;;;2.30;;
66607;SDS011;53462;39.616;8.824;2023-05-07T01:33:46;4.07;;;2.17;;
66607;SDS011;53462;39.616;8.824;2023-05-07T01:36:15;3.38;;;2.10;;
66607;SDS011;53462;39.616;8.824;2023-05-07T01:38:43;4.03;;;2.20;;
66607;SDS011;53462;39.616;8.824;2023-05-07T01:41:11;3.08;;;2.20;;
66607;SDS011;53462;39.616;8.824;2023-05-07T01:43:39;2.78;;;2.00;;
66607;SDS011;53462;39.616;8.824;2023-05-07T01:46:06;3.00;;;2.00;;
66607;SDS011;53462;39.616;8.824;2023-05-07T01:48:35;2.45;;;2.05;;
66607;SDS011;53462;39.616;8.824;2023-05-07T01:51:01;3.00;;;2.25;;
66607;SDS011;53462;39.616;8.824;2023-05-07T01:53:28;5.70;;;2.35;;
66607;SDS011;53462;39.616;8.824;2023-05-07T01:55:54;2.80;;;2.00;;
66607;SDS011;53462;39.616;8.824;2023-05-07T01:58:21;2.60;;;1.92;;
66607;SDS011;53462;39.616;8.824;2023-05-07T02:00:47;2.80;;;2.20;;
66607;SDS011;53462;39.616;8.824;2023-05-07T02:03:13;3.72;;;2.42;;
66607;SDS011;53462;39.616;8.824;2023-05-07T02:05:47;2.78;;;2.13;;
66607;SDS011;53462;39.616;8.824;2023-05-07T02:08:27;2.78;;;2.20;;
66607;SDS011;53462;39.616;8.824;2023-05-07T02:10:53;2.88;;;2.00;;
66607;SDS011;53462;39.616;8.824;2023-05-07T02:13:19;3.28;;;2.22;;
66607;SDS011;53462;39.616;8.824;2023-05-07T02:15:47;2.88;;;2.35;;
66607;SDS011;53462;39.616;8.824;2023-05-07T02:18:16;2.40;;;2.20;;
66607;SDS011;53462;39.616;8.824;2023-05-07T02:20:43;3.13;;;2.00;;
66607;SDS011;53462;39.616;8.824;2023-05-07T02:23:09;2.65;;;2.17;;
66607;SDS011;53462;39.616;8.824;2023-05-07T02:25:35;2.42;;;1.92;;
66607;SDS011;53462;39.616;8.824;2023-05-07T02:28:01;3.85;;;2.00;;
66607;SDS011;53462;39.616;8.824;2023-05-07T02:30:38;4.05;;;2.00;;
66607;SDS011;53462;39.616;8.824;2023-05-07T02:33:05;2.47;;;1.90;;
66607;SDS011;53462;39.616;8.824;2023-05-07T02:35:32;4.25;;;1.92;;
66607;SDS011;53462;39.616;8.824;2023-05-07T02:37:58;3.28;;;2.00;;
66607;SDS011;53462;39.616;8.824;2023-05-07T02:40:24;2.63;;;2.10;;
66607;SDS011;53462;39.616;8.824;2023-05-07T02:42:50;2.38;;;1.92;;
66607;SDS011;53462;39.616;8.824;2023-05-07T02:45:17;2.53;;;2.05;;
66607;SDS011;53462;39.616;8.824;2023-05-07T02:47:43;2.70;;;2.00;;
66607;SDS011;53462;39.616;8.824;2023-05-07T02:50:10;2.42;;;2.03;;
66607;SDS011;53462;39.616;8.824;2023-05-07T02:52:36;2.88;;;2.00;;
66607;SDS011;53462;39.616;8.824;2023-05-07T02:55:02;2.28;;;1.80;;
66607;SDS011;53462;39.616;8.824;2023-05-07T02:57:28;2.55;;;2.20;;
66607;SDS011;53462;39.616;8.824;2023-05-07T02:59:54;2.15;;;1.95;;
66607;SDS011;53462;39.616;8.824;2023-05-07T03:02:21;3.17;;;2.20;;
66607;SDS011;53462;39.616;8.824;2023-05-07T03:04:47;2.75;;;2.00;;
66607;SDS011;53462;39.616;8.824;2023-05-07T03:07:13;3.15;;;2.00;;
66607;SDS011;53462;39.616;8.824;2023-05-07T03:09:39;3.63;;;2.10;;
66607;SDS011;53462;39.616;8.824;2023-05-07T03:12:05;5.38;;;2.10;;
66607;SDS011;53462;39.616;8.824;2023-05-07T03:14:31;4.47;;;2.10;;
66607;SDS011;53462;39.616;8.824;2023-05-07T03:16:57;4.10;;;2.00;;
66607;SDS011;53462;39.616;8.824;2023-05-07T03:19:23;2.97;;;1.90;;
66607;SDS011;53462;39.616;8.824;2023-05-07T03:21:49;2.70;;;2.10;;
66607;SDS011;53462;39.616;8.824;2023-05-07T03:24:15;3.20;;;2.10;;
66607;SDS011;53462;39.616;8.824;2023-05-07T03:26:41;3.88;;;1.95;;
66607;SDS011;53462;39.616;8.824;2023-05-07T03:29:07;2.97;;;2.10;;
66607;SDS011;53462;39.616;8.824;2023-05-07T03:31:33;3.25;;;2.10;;
66607;SDS011;53462;39.616;8.824;2023-05-07T03:34:00;2.58;;;1.95;;
66607;SDS011;53462;39.616;8.824;2023-05-07T03:36:26;2.83;;;2.00;;
66607;SDS011;53462;39.616;8.824;2023-05-07T03:38:53;2.97;;;2.10;;
66607;SDS011;53462;39.616;8.824;2023-05-07T03:41:23;2.40;;;1.80;;
66607;SDS011;53462;39.616;8.824;2023-05-07T03:43:49;5.57;;;2.00;;
66607;SDS011;53462;39.616;8.824;2023-05-07T03:46:15;2.70;;;2.00;;
66607;SDS011;53462;39.616;8.824;2023-05-07T03:48:41;2.80;;;2.13;;
66607;SDS011;53462;39.616;8.824;2023-05-07T03:51:08;2.75;;;2.10;;
66607;SDS011;53462;39.616;8.824;2023-05-07T03:53:34;3.60;;;2.50;;
66607;SDS011;53462;39.616;8.824;2023-05-07T03:56:00;3.85;;;2.30;;
66607;SDS011;53462;39.616;8.824;2023-05-07T03:58:28;3.42;;;2.08;;
66607;SDS011;53462;39.616;8.824;2023-05-07T04:00:57;3.55;;;2.17;;
66607;SDS011;53462;39.616;8.824;2023-05-07T04:03:26;3.53;;;2.20;;
66607;SDS011;53462;39.616;8.824;2023-05-07T04:05:55;4.18;;;2.40;;
66607;SDS011;53462;39.616;8.824;2023-05-07T04:08:21;2.80;;;2.40;;
66607;SDS011;53462;39.616;8.824;2023-05-07T04:10:55;3.50;;;2.78;;
66607;SDS011;53462;39.616;8.824;2023-05-07T04:13:22;4.10;;;2.55;;
66607;SDS011;53462;39.616;8.824;2023-05-07T04:15:48;3.65;;;2.63;;
66607;SDS011;53462;39.616;8.824;2023-05-07T04:18:17;3.90;;;2.75;;
66607;SDS011;53462;39.616;8.824;2023-05-07T04:20:45;3.67;;;2.78;;
66607;SDS011;53462;39.616;8.824;2023-05-07T04:23:13;5.05;;;2.78;;
66607;SDS011;53462;39.616;8.824;2023-05-07T04:25:39;3.65;;;2.75;;
66607;SDS011;53462;39.616;8.824;2023-05-07T04:28:26;3.35;;;2.60;;
66607;SDS011;53462;39.616;8.824;2023-05-07T04:30:52;4.00;;;2.67;;
66607;SDS011;53462;39.616;8.824;2023-05-07T04:33:20;3.28;;;2.45;;
66607;SDS011;53462;39.616;8.824;2023-05-07T04:35:47;3.70;;;2.60;;
66607;SDS011;53462;39.616;8.824;2023-05-07T04:38:14;5.22;;;2.67;;
66607;SDS011;53462;39.616;8.824;2023-05-07T04:40:40;7.30;;;2.65;;
66607;SDS011;53462;39.616;8.824;2023-05-07T04:43:09;3.10;;;2.40;;
66607;SDS011;53462;39.616;8.824;2023-05-07T04:45:41;3.92;;;2.58;;
66607;SDS011;53462;39.616;8.824;2023-05-07T04:48:08;3.85;;;2.40;;
66607;SDS011;53462;39.616;8.824;2023-05-07T04:50:38;4.05;;;2.70;;
66607;SDS011;53462;39.616;8.824;2023-05-07T04:53:05;3.33;;;2.60;;
66607;SDS011;53462;39.616;8.824;2023-05-07T04:55:30;2.92;;;2.38;;
66607;SDS011;53462;39.616;8.824;2023-05-07T04:57:56;6.13;;;3.00;;
66607;SDS011;53462;39.616;8.824;2023-05-07T05:00:23;4.40;;;2.70;;
66607;SDS011;53462;39.616;8.824;2023-05-07T05:02:50;3.13;;;2.60;;
66607;SDS011;53462;39.616;8.824;2023-05-07T05:05:19;4.45;;;2.70;;
66607;SDS011;53462;39.616;8.824;2023-05-07T05:07:47;4.20;;;2.97;;
66607;SDS011;53462;39.616;8.824;2023-05-07T05:10:13;3.13;;;2.53;;
66607;SDS011;53462;39.616;8.824;2023-05-07T05:12:40;5.78;;;2.90;;
66607;SDS011;53462;39.616;8.824;2023-05-07T05:15:06;5.13;;;2.90;;
66607;SDS011;53462;39.616;8.824;2023-05-07T05:17:33;3.60;;;2.60;;
66607;SDS011;53462;39.616;8.824;2023-05-07T05:20:02;4.20;;;2.60;;
66607;SDS011;53462;39.616;8.824;2023-05-07T05:22:29;3.35;;;2.58;;
66607;SDS011;53462;39.616;8.824;2023-05-07T05:24:57;3.42;;;2.40;;
66607;SDS011;53462;39.616;8.824;2023-05-07T05:27:23;3.90;;;2.80;;
66607;SDS011;53462;39.616;8.824;2023-05-07T05:29:50;4.38;;;2.50;;
66607;SDS011;53462;39.616;8.824;2023-05-07T05:32:16;3.47;;;2.55;;
66607;SDS011;53462;39.616;8.824;2023-05-07T05:34:42;3.20;;;2.40;;
66607;SDS011;53462;39.616;8.824;2023-05-07T05:37:08;2.88;;;2.30;;
66607;SDS011;53462;39.616;8.824;2023-05-07T05:39:34;4.28;;;2.90;;
66607;SDS011;53462;39.616;8.824;2023-05-07T05:42:01;4.47;;;2.92;;
66607;SDS011;53462;39.616;8.824;2023-05-07T05:44:27;4.55;;;2.30;;
66607;SDS011;53462;39.616;8.824;2023-05-07T05:46:53;5.80;;;2.58;;
66607;SDS011;53462;39.616;8.824;2023-05-07T05:49:21;3.10;;;2.40;;
66607;SDS011;53462;39.616;8.824;2023-05-07T05:51:47;2.97;;;2.38;;
66607;SDS011;53462;39.616;8.824;2023-05-07T05:54:13;3.17;;;2.50;;
66607;SDS011;53462;39.616;8.824;2023-05-07T05:56:41;3.72;;;2.50;;
66607;SDS011;53462;39.616;8.824;2023-05-07T05:59:07;4.07;;;2.53;;
66607;SDS011;53462;39.616;8.824;2023-05-07T06:01:34;4.32;;;2.50;;
66607;SDS011;53462;39.616;8.824;2023-05-07T06:04:02;3.58;;;2.53;;
66607;SDS011;53462;39.616;8.824;2023-05-07T06:06:28;3.38;;;2.50;;
66607;SDS011;53462;39.616;8.824;2023-05-07T06:08:54;2.90;;;2.30;;
66607;SDS011;53462;39.616;8.824;2023-05-07T06:11:26;3.25;;;2.58;;
66607;SDS011;53462;39.616;8.824;2023-05-07T06:13:52;3.80;;;2.75;;
66607;SDS011;53462;39.616;8.824;2023-05-07T06:16:18;3.85;;;2.70;;
66607;SDS011;53462;39.616;8.824;2023-05-07T06:18:44;5.88;;;2.80;;
66607;SDS011;53462;39.616;8.824;2023-05-07T06:21:13;5.13;;;3.10;;
66607;SDS011;53462;39.616;8.824;2023-05-07T06:23:40;5.00;;;2.70;;
66607;SDS011;53462;39.616;8.824;2023-05-07T06:26:06;5.90;;;3.30;;
66607;SDS011;53462;39.616;8.824;2023-05-07T06:28:37;4.63;;;3.13;;
66607;SDS011;53462;39.616;8.824;2023-05-07T06:31:16;3.00;;;2.50;;
66607;SDS011;53462;39.616;8.824;2023-05-07T06:33:58;3.60;;;2.63;;
66607;SDS011;53462;39.616;8.824;2023-05-07T06:36:30;6.28;;;3.20;;
66607;SDS011;53462;39.616;8.824;2023-05-07T06:38:59;4.60;;;2.75;;
66607;SDS011;53462;39.616;8.824;2023-05-07T06:41:25;5.68;;;3.20;;
66607;SDS011;53462;39.616;8.824;2023-05-07T06:43:51;3.47;;;2.60;;
66607;SDS011;53462;39.616;8.824;2023-05-07T06:46:35;3.55;;;2.40;;
66607;SDS011;53462;39.616;8.824;2023-05-07T06:49:03;5.70;;;3.63;;
66607;SDS011;53462;39.616;8.824;2023-05-07T06:51:29;4.82;;;3.47;;
66607;SDS011;53462;39.616;8.824;2023-05-07T06:54:00;5.82;;;3.25;;
66607;SDS011;53462;39.616;8.824;2023-05-07T06:56:26;6.00;;;3.00;;
66607;SDS011;53462;39.616;8.824;2023-05-07T06:58:52;4.60;;;2.95;;
66607;SDS011;53462;39.616;8.824;2023-05-07T07:01:20;2.72;;;2.40;;
66607;SDS011;53462;39.616;8.824;2023-05-07T07:03:45;5.40;;;2.60;;
66607;SDS011;53462;39.616;8.824;2023-05-07T07:06:12;3.67;;;2.40;;
66607;SDS011;53462;39.616;8.824;2023-05-07T07:08:38;3.65;;;2.58;;
66607;SDS011;53462;39.616;8.824;2023-05-07T07:11:05;2.70;;;2.17;;
66607;SDS011;53462;39.616;8.824;2023-05-07T07:13:31;3.20;;;2.17;;
66607;SDS011;53462;39.616;8.824;2023-05-07T07:15:58;3.85;;;2.33;;
66607;SDS011;53462;39.616;8.824;2023-05-07T07:18:24;2.75;;;2.15;;
66607;SDS011;53462;39.616;8.824;2023-05-07T07:20:51;3.17;;;2.30;;
66607;SDS011;53462;39.616;8.824;2023-05-07T07:23:17;3.38;;;2.28;;
66607;SDS011;53462;39.616;8.824;2023-05-07T07:25:43;3.35;;;2.47;;
66607;SDS011;53462;39.616;8.824;2023-05-07T07:28:10;7.70;;;3.20;;
66607;SDS011;53462;39.616;8.824;2023-05-07T07:30:37;6.25;;;3.03;;
66607;SDS011;53462;39.616;8.824;2023-05-07T07:33:04;5.60;;;2.65;;
66607;SDS011;53462;39.616;8.824;2023-05-07T07:35:34;5.25;;;3.60;;
66607;SDS011;53462;39.616;8.824;2023-05-07T07:38:00;5.28;;;3.90;;
66607;SDS011;53462;39.616;8.824;2023-05-07T07:40:27;3.30;;;2.63;;
66607;SDS011;53462;39.616;8.824;2023-05-07T07:42:53;4.80;;;2.35;;
66607;SDS011;53462;39.616;8.824;2023-05-07T07:45:19;2.58;;;2.30;;
66607;SDS011;53462;39.616;8.824;2023-05-07T07:47:47;3.35;;;1.90;;
66607;SDS011;53462;39.616;8.824;2023-05-07T07:50:13;4.72;;;2.55;;
66607;SDS011;53462;39.616;8.824;2023-05-07T07:52:39;5.00;;;2.90;;
66607;SDS011;53462;39.616;8.824;2023-05-07T07:55:06;3.42;;;2.40;;
66607;SDS011;53462;39.616;8.824;2023-05-07T07:57:33;2.72;;;2.30;;
66607;SDS011;53462;39.616;8.824;2023-05-07T07:59:59;3.58;;;2.40;;
66607;SDS011;53462;39.616;8.824;2023-05-07T08:02:27;3.63;;;2.55;;
66607;SDS011;53462;39.616;8.824;2023-05-07T08:04:53;3.20;;;2.30;;
66607;SDS011;53462;39.616;8.824;2023-05-07T08:07:19;4.72;;;3.40;;
66607;SDS011;53462;39.616;8.824;2023-05-07T08:09:48;3.60;;;2.28;;
66607;SDS011;53462;39.616;8.824;2023-05-07T08:12:16;2.88;;;2.40;;
66607;SDS011;53462;39.616;8.824;2023-05-07T08:14:42;3.10;;;2.17;;
66607;SDS011;53462;39.616;8.824;2023-05-07T08:17:09;2.65;;;2.15;;
66607;SDS011;53462;39.616;8.824;2023-05-07T08:19:36;4.85;;;2.28;;
66607;SDS011;53462;39.616;8.824;2023-05-07T08:22:04;3.63;;;2.25;;
66607;SDS011;53462;39.616;8.824;2023-05-07T08:24:32;2.40;;;2.10;;
66607;SDS011;53462;39.616;8.824;2023-05-07T08:26:58;4.38;;;2.25;;
66607;SDS011;53462;39.616;8.824;2023-05-07T08:29:24;6.03;;;2.33;;
66607;SDS011;53462;39.616;8.824;2023-05-07T08:31:51;7.22;;;3.47;;
66607;SDS011;53462;39.616;8.824;2023-05-07T08:34:17;3.50;;;2.60;;
66607;SDS011;53462;39.616;8.824;2023-05-07T08:36:45;4.63;;;2.50;;
66607;SDS011;53462;39.616;8.824;2023-05-07T08:39:15;5.07;;;3.00;;
66607;SDS011;53462;39.616;8.824;2023-05-07T08:41:46;7.07;;;4.30;;
66607;SDS011;53462;39.616;8.824;2023-05-07T08:44:17;3.20;;;2.20;;
66607;SDS011;53462;39.616;8.824;2023-05-07T08:46:48;4.38;;;2.50;;
66607;SDS011;53462;39.616;8.824;2023-05-07T08:49:20;8.18;;;5.75;;
66607;SDS011;53462;39.616;8.824;2023-05-07T08:51:46;4.00;;;2.90;;
66607;SDS011;53462;39.616;8.824;2023-05-07T08:54:15;7.10;;;3.20;;
66607;SDS011;53462;39.616;8.824;2023-05-07T08:56:42;3.70;;;2.95;;
66607;SDS011;53462;39.616;8.824;2023-05-07T08:59:07;3.45;;;2.40;;
66607;SDS011;53462;39.616;8.824;2023-05-07T09:01:34;5.13;;;2.60;;
66607;SDS011;53462;39.616;8.824;2023-05-07T09:04:01;4.70;;;2.30;;
66607;SDS011;53462;39.616;8.824;2023-05-07T09:06:28;3.10;;;2.40;;
66607;SDS011;53462;39.616;8.824;2023-05-07T09:08:55;4.10;;;3.00;;
66607;SDS011;53462;39.616;8.824;2023-05-07T09:11:27;3.88;;;2.47;;
66607;SDS011;53462;39.616;8.824;2023-05-07T09:13:56;3.30;;;2.40;;
66607;SDS011;53462;39.616;8.824;2023-05-07T09:16:25;5.47;;;2.63;;
66607;SDS011;53462;39.616;8.824;2023-05-07T09:18:53;5.95;;;4.07;;
66607;SDS011;53462;39.616;8.824;2023-05-07T09:21:20;5.75;;;2.30;;
66607;SDS011;53462;39.616;8.824;2023-05-07T09:23:50;5.93;;;3.17;;
66607;SDS011;53462;39.616;8.824;2023-05-07T09:26:20;2.95;;;2.20;;
66607;SDS011;53462;39.616;8.824;2023-05-07T09:28:47;3.00;;;2.10;;
66607;SDS011;53462;39.616;8.824;2023-05-07T09:31:14;4.45;;;2.83;;
66607;SDS011;53462;39.616;8.824;2023-05-07T09:33:40;2.33;;;1.80;;
66607;SDS011;53462;39.616;8.824;2023-05-07T09:36:09;3.60;;;1.90;;
66607;SDS011;53462;39.616;8.824;2023-05-07T09:38:38;7.05;;;3.20;;
66607;SDS011;53462;39.616;8.824;2023-05-07T09:41:05;4.55;;;2.90;;
66607;SDS011;53462;39.616;8.824;2023-05-07T09:43:56;4.28;;;3.00;;
66607;SDS011;53462;39.616;8.824;2023-05-07T09:46:29;3.03;;;2.60;;
66607;SDS011;53462;39.616;8.824;2023-05-07T09:48:59;7.88;;;2.90;;
66607;SDS011;53462;39.616;8.824;2023-05-07T09:51:29;3.33;;;2.08;;
66607;SDS011;53462;39.616;8.824;2023-05-07T09:53:59;3.35;;;2.25;;
66607;SDS011;53462;39.616;8.824;2023-05-07T09:56:30;8.27;;;3.20;;
66607;SDS011;53462;39.616;8.824;2023-05-07T09:58:57;4.38;;;2.80;;
66607;SDS011;53462;39.616;8.824;2023-05-07T10:01:29;7.05;;;2.70;;
66607;SDS011;53462;39.616;8.824;2023-05-07T10:03:57;3.53;;;2.10;;
66607;SDS011;53462;39.616;8.824;2023-05-07T10:06:24;5.55;;;3.47;;
66607;SDS011;53462;39.616;8.824;2023-05-07T10:08:51;3.45;;;2.25;;
66607;SDS011;53462;39.616;8.824;2023-05-07T10:11:19;4.57;;;2.60;;
66607;SDS011;53462;39.616;8.824;2023-05-07T10:13:47;4.38;;;2.60;;
66607;SDS011;53462;39.616;8.824;2023-05-07T10:16:13;3.00;;;1.90;;
66607;SDS011;53462;39.616;8.824;2023-05-07T10:18:45;3.13;;;2.00;;
66607;SDS011;53462;39.616;8.824;2023-05-07T10:21:17;5.70;;;2.63;;
66607;SDS011;53462;39.616;8.824;2023-05-07T10:23:51;3.72;;;2.58;;
66607;SDS011;53462;39.616;8.824;2023-05-07T10:26:23;3.92;;;2.15;;
66607;SDS011;53462;39.616;8.824;2023-05-07T10:28:53;3.08;;;2.17;;
66607;SDS011;53462;39.616;8.824;2023-05-07T10:34:10;5.75;;;3.00;;
66607;SDS011;53462;39.616;8.824;2023-05-07T10:36:39;3.85;;;2.40;;
66607;SDS011;53462;39.616;8.824;2023-05-07T10:39:07;2.05;;;1.85;;
66607;SDS011;53462;39.616;8.824;2023-05-07T10:41:34;4.25;;;2.28;;
66607;SDS011;53462;39.616;8.824;2023-05-07T10:44:00;3.53;;;2.60;;
66607;SDS011;53462;39.616;8.824;2023-05-07T10:46:30;5.82;;;2.70;;
66607;SDS011;53462;39.616;8.824;2023-05-07T10:49:06;3.60;;;2.38;;
66607;SDS011;53462;39.616;8.824;2023-05-07T10:57:47;4.10;;;2.50;;
66607;SDS011;53462;39.616;8.824;2023-05-07T11:05:32;3.33;;;2.08;;
66607;SDS011;53462;39.616;8.824;2023-05-07T11:08:12;3.92;;;2.10;;
66607;SDS011;53462;39.616;8.824;2023-05-07T11:10:59;2.35;;;1.67;;
66607;SDS011;53462;39.616;8.824;2023-05-07T11:13:48;4.43;;;2.38;;
66607;SDS011;53462;39.616;8.824;2023-05-07T11:16:37;4.40;;;2.65;;
66607;SDS011;53462;39.616;8.824;2023-05-07T11:19:14;2.90;;;1.80;;
66607;SDS011;53462;39.616;8.824;2023-05-07T11:21:45;3.10;;;2.47;;
66607;SDS011;53462;39.616;8.824;2023-05-07T11:24:37;2.58;;;1.52;;
66607;SDS011;53462;39.616;8.824;2023-05-07T11:27:08;4.88;;;1.63;;
66607;SDS011;53462;39.616;8.824;2023-05-07T11:29:35;3.40;;;1.70;;
66607;SDS011;53462;39.616;8.824;2023-05-07T11:32:06;2.30;;;1.80;;
66607;SDS011;53462;39.616;8.824;2023-05-07T11:34:41;1.63;;;1.50;;
66607;SDS011;53462;39.616;8.824;2023-05-07T11:37:07;2.28;;;1.63;;
66607;SDS011;53462;39.616;8.824;2023-05-07T11:39:41;3.67;;;1.75;;
66607;SDS011;53462;39.616;8.824;2023-05-07T11:42:07;2.00;;;1.60;;
66607;SDS011;53462;39.616;8.824;2023-05-07T11:44:54;2.00;;;1.75;;
66607;SDS011;53462;39.616;8.824;2023-05-07T11:47:20;3.60;;;1.90;;
66607;SDS011;53462;39.616;8.824;2023-05-07T11:49:47;4.03;;;1.50;;
66607;SDS011;53462;39.616;8.824;2023-05-07T11:52:14;3.67;;;1.80;;
66607;SDS011;53462;39.616;8.824;2023-05-07T11:54:50;2.30;;;1.58;;
66607;SDS011;53462;39.616;8.824;2023-05-07T11:57:18;2.42;;;1.60;;
66607;SDS011;53462;39.616;8.824;2023-05-07T11:59:44;3.17;;;1.75;;
66607;SDS011;53462;39.616;8.824;2023-05-07T12:02:10;5.60;;;1.48;;
66607;SDS011;53462;39.616;8.824;2023-05-07T12:04:38;2.58;;;1.65;;
66607;SDS011;53462;39.616;8.824;2023-05-07T12:07:04;2.15;;;1.67;;
66607;SDS011;53462;39.616;8.824;2023-05-07T12:09:32;3.88;;;1.80;;
66607;SDS011;53462;39.616;8.824;2023-05-07T12:12:02;2.95;;;1.60;;
66607;SDS011;53462;39.616;8.824;2023-05-07T12:14:29;2.35;;;1.50;;
66607;SDS011;53462;39.616;8.824;2023-05-07T12:16:55;2.20;;;1.52;;
66607;SDS011;53462;39.616;8.824;2023-05-07T12:19:22;1.75;;;1.40;;
66607;SDS011;53462;39.616;8.824;2023-05-07T12:21:48;3.10;;;1.50;;
66607;SDS011;53462;39.616;8.824;2023-05-07T12:24:15;2.42;;;1.67;;
66607;SDS011;53462;39.616;8.824;2023-05-07T12:26:41;3.15;;;1.98;;
66607;SDS011;53462;39.616;8.824;2023-05-07T12:29:07;5.80;;;1.85;;
66607;SDS011;53462;39.616;8.824;2023-05-07T12:31:33;3.22;;;2.05;;
66607;SDS011;53462;39.616;8.824;2023-05-07T12:33:59;11.50;;;2.15;;
66607;SDS011;53462;39.616;8.824;2023-05-07T12:36:25;2.83;;;1.88;;
66607;SDS011;53462;39.616;8.824;2023-05-07T12:38:51;3.67;;;2.00;;
66607;SDS011;53462;39.616;8.824;2023-05-07T12:41:17;6.40;;;2.25;;
66607;SDS011;53462;39.616;8.824;2023-05-07T12:43:43;4.00;;;2.17;;
66607;SDS011;53462;39.616;8.824;2023-05-07T12:46:11;3.38;;;2.30;;
66607;SDS011;53462;39.616;8.824;2023-05-07T12:48:45;3.10;;;2.10;;
66607;SDS011;53462;39.616;8.824;2023-05-07T12:51:11;2.72;;;2.20;;
66607;SDS011;53462;39.616;8.824;2023-05-07T12:53:41;5.18;;;2.20;;
66607;SDS011;53462;39.616;8.824;2023-05-07T12:56:08;6.97;;;2.67;;
66607;SDS011;53462;39.616;8.824;2023-05-07T12:58:35;4.32;;;2.60;;
66607;SDS011;53462;39.616;8.824;2023-05-07T13:01:04;2.88;;;2.20;;
66607;SDS011;53462;39.616;8.824;2023-05-07T13:03:32;2.45;;;1.77;;
66607;SDS011;53462;39.616;8.824;2023-05-07T13:06:03;8.70;;;2.20;;
66607;SDS011;53462;39.616;8.824;2023-05-07T13:11:06;4.10;;;1.90;;
66607;SDS011;53462;39.616;8.824;2023-05-07T13:13:34;4.55;;;1.90;;
66607;SDS011;53462;39.616;8.824;2023-05-07T13:16:02;2.55;;;2.00;;
66607;SDS011;53462;39.616;8.824;2023-05-07T13:18:29;2.97;;;1.80;;
66607;SDS011;53462;39.616;8.824;2023-05-07T13:20:56;4.30;;;1.83;;
66607;SDS011;53462;39.616;8.824;2023-05-07T13:23:22;3.45;;;1.88;;
66607;SDS011;53462;39.616;8.824;2023-05-07T13:25:48;2.15;;;1.70;;
66607;SDS011;53462;39.616;8.824;2023-05-07T13:28:16;2.75;;;1.83;;
66607;SDS011;53462;39.616;8.824;2023-05-07T13:30:42;8.73;;;1.92;;
66607;SDS011;53462;39.616;8.824;2023-05-07T13:33:08;4.57;;;1.90;;
66607;SDS011;53462;39.616;8.824;2023-05-07T13:35:34;2.05;;;1.55;;
66607;SDS011;53462;39.616;8.824;2023-05-07T13:38:00;2.58;;;1.60;;
66607;SDS011;53462;39.616;8.824;2023-05-07T13:40:26;1.98;;;1.50;;
66607;SDS011;53462;39.616;8.824;2023-05-07T13:42:53;2.72;;;1.75;;
66607;SDS011;53462;39.616;8.824;2023-05-07T13:45:19;1.70;;;1.40;;
66607;SDS011;53462;39.616;8.824;2023-05-07T13:47:46;5.45;;;1.67;;
66607;SDS011;53462;39.616;8.824;2023-05-07T13:50:12;3.63;;;1.80;;
66607;SDS011;53462;39.616;8.824;2023-05-07T13:52:41;3.15;;;1.48;;
66607;SDS011;53462;39.616;8.824;2023-05-07T13:55:09;4.93;;;1.80;;
66607;SDS011;53462;39.616;8.824;2023-05-07T13:57:38;3.60;;;1.85;;
66607;SDS011;53462;39.616;8.824;2023-05-07T14:00:04;4.28;;;1.50;;
66607;SDS011;53462;39.616;8.824;2023-05-07T14:02:40;11.27;;;2.10;;
66607;SDS011;53462;39.616;8.824;2023-05-07T14:05:06;5.25;;;1.80;;
66607;SDS011;53462;39.616;8.824;2023-05-07T14:07:33;2.38;;;1.65;;
66607;SDS011;53462;39.616;8.824;2023-05-07T14:09:59;3.30;;;1.70;;
66607;SDS011;53462;39.616;8.824;2023-05-07T14:12:25;2.42;;;1.73;;
66607;SDS011;53462;39.616;8.824;2023-05-07T14:14:51;4.20;;;1.58;;
66607;SDS011;53462;39.616;8.824;2023-05-07T14:17:17;2.63;;;1.65;;
66607;SDS011;53462;39.616;8.824;2023-05-07T14:19:44;3.38;;;1.50;;
66607;SDS011;53462;39.616;8.824;2023-05-07T14:22:10;3.95;;;1.50;;
66607;SDS011;53462;39.616;8.824;2023-05-07T14:24:37;2.45;;;1.65;;
66607;SDS011;53462;39.616;8.824;2023-05-07T14:27:04;3.45;;;1.55;;
66607;SDS011;53462;39.616;8.824;2023-05-07T14:29:31;2.75;;;1.60;;
66607;SDS011;53462;39.616;8.824;2023-05-07T14:31:57;4.57;;;1.73;;
66607;SDS011;53462;39.616;8.824;2023-05-07T14:34:23;2.95;;;1.70;;
66607;SDS011;53462;39.616;8.824;2023-05-07T14:36:49;5.22;;;1.67;;
66607;SDS011;53462;39.616;8.824;2023-05-07T14:39:14;4.00;;;1.60;;
66607;SDS011;53462;39.616;8.824;2023-05-07T14:41:40;3.95;;;1.50;;
66607;SDS011;53462;39.616;8.824;2023-05-07T14:44:06;4.47;;;1.60;;
66607;SDS011;53462;39.616;8.824;2023-05-07T14:46:32;1.92;;;1.30;;
66607;SDS011;53462;39.616;8.824;2023-05-07T14:48:58;2.50;;;1.40;;
66607;SDS011;53462;39.616;8.824;2023-05-07T14:51:25;2.70;;;1.40;;
66607;SDS011;53462;39.616;8.824;2023-05-07T14:53:53;3.05;;;1.40;;
66607;SDS011;53462;39.616;8.824;2023-05-07T14:56:19;2.92;;;1.50;;
66607;SDS011;53462;39.616;8.824;2023-05-07T14:58:46;2.55;;;1.50;;
66607;SDS011;53462;39.616;8.824;2023-05-07T15:01:13;2.05;;;1.50;;
66607;SDS011;53462;39.616;8.824;2023-05-07T15:03:39;3.13;;;2.17;;
66607;SDS011;53462;39.616;8.824;2023-05-07T15:06:05;3.22;;;1.90;;
66607;SDS011;53462;39.616;8.824;2023-05-07T15:08:31;2.03;;;1.50;;